createdAt,value
2016-04-25T00:00:23.497Z,0
2016-04-25T00:01:23.594Z,0
2016-04-25T00:02:23.549Z,0
2016-04-25T00:03:23.582Z,0
2016-04-25T00:04:23.632Z,0
2016-04-25T00:05:23.667Z,0
2016-04-25T00:06:23.700Z,0
2016-04-25T00:07:23.718Z,0
2016-04-25T00:08:23.768Z,0
2016-04-25T00:09:23.832Z,0
2016-04-25T00:10:23.852Z,0
2016-04-25T00:11:23.902Z,0
2016-04-25T00:12:25.154Z,0
2016-04-25T00:13:23.937Z,0
2016-04-25T00:14:23.971Z,0
2016-04-25T00:15:24.006Z,0
2016-04-25T00:16:24.071Z,0
2016-04-25T00:17:23.309Z,0
2016-04-25T00:18:23.342Z,0
2016-04-25T00:19:24.188Z,0
2016-04-25T00:20:24.206Z,0
2016-04-25T00:21:24.054Z,0
2016-04-25T00:22:24.264Z,0
2016-04-25T00:23:24.345Z,0
2016-04-25T00:24:24.332Z,0
2016-04-25T00:25:24.351Z,0
2016-04-25T00:26:24.228Z,0
2016-04-25T00:27:24.356Z,0
2016-04-25T00:28:24.453Z,0
2016-04-25T00:29:24.486Z,0
2016-04-25T00:30:24.537Z,0
2016-04-25T00:31:24.601Z,0
2016-04-25T00:32:24.589Z,0
2016-04-25T00:33:24.639Z,0
2016-04-25T00:34:24.687Z,0
2016-04-25T00:35:24.690Z,0
2016-04-25T00:36:24.724Z,0
2016-04-25T00:37:24.790Z,0
2016-04-25T00:38:24.823Z,0
2016-04-25T00:39:24.873Z,0
2016-04-25T00:40:24.860Z,0
2016-04-25T00:41:24.894Z,0
2016-04-25T00:42:24.646Z,0
2016-04-25T00:43:24.978Z,0
2016-04-25T00:44:24.996Z,0
2016-04-25T00:45:25.061Z,0
2016-04-25T00:46:25.126Z,0
2016-04-25T00:47:24.989Z,0
2016-04-25T00:48:25.147Z,0
2016-04-25T00:49:25.182Z,0
2016-04-25T00:50:25.277Z,0
2016-04-25T00:51:25.249Z,0
2016-04-25T00:52:25.126Z,0
2016-04-25T00:53:25.380Z,0
2016-04-25T00:54:25.398Z,0
2016-04-25T00:55:24.619Z,0
2016-04-25T00:56:25.434Z,0
2016-04-25T00:57:26.782Z,0
2016-04-25T00:58:25.502Z,0
2016-04-25T00:59:25.521Z,0
2016-04-25T01:00:25.586Z,0
2016-04-25T01:01:25.619Z,0
2016-04-25T01:02:25.622Z,0
2016-04-25T01:03:25.673Z,0
2016-04-25T01:04:25.690Z,0
2016-04-25T01:05:24.943Z,0
2016-04-25T01:06:25.758Z,0
2016-04-25T01:07:25.823Z,0
2016-04-25T01:08:25.858Z,0
2016-04-25T01:09:25.892Z,0
2016-04-25T01:10:25.894Z,0
2016-04-25T01:11:25.927Z,0
2016-04-25T01:12:26.196Z,0
2016-04-25T01:13:26.042Z,0
2016-04-25T01:14:26.030Z,0
2016-04-25T01:15:26.063Z,0
2016-04-25T01:16:26.191Z,0
2016-04-25T01:17:26.147Z,0
2016-04-25T01:18:26.166Z,0
2016-04-25T01:19:26.199Z,0
2016-04-25T01:20:26.296Z,0
2016-04-25T01:21:26.298Z,0
2016-04-25T01:22:26.317Z,0
2016-04-25T01:23:25.616Z,0
2016-04-25T01:24:26.400Z,0
2016-04-25T01:25:25.637Z,0
2016-04-25T01:26:26.437Z,0
2016-04-25T01:27:27.143Z,0
2016-04-25T01:28:26.380Z,0
2016-04-25T01:29:26.554Z,0
2016-04-25T01:30:26.417Z,0
2016-04-25T01:31:26.701Z,0
2016-04-25T01:32:26.656Z,0
2016-04-25T01:33:26.675Z,0
2016-04-25T01:34:26.709Z,0
2016-04-25T01:35:26.836Z,0
2016-04-25T01:36:26.792Z,0
2016-04-25T01:37:26.826Z,0
2016-04-25T01:38:26.734Z,0
2016-04-25T01:39:26.878Z,0
2016-04-25T01:40:26.928Z,0
2016-04-25T01:41:26.806Z,0
2016-04-25T01:42:27.183Z,0
2016-04-25T01:43:26.951Z,0
2016-04-25T01:44:27.063Z,0
2016-04-25T01:45:27.097Z,0
2016-04-25T01:46:27.210Z,0
2016-04-25T01:47:27.166Z,0
2016-04-25T01:48:27.183Z,0
2016-04-25T01:49:27.280Z,0
2016-04-25T01:50:27.283Z,0
2016-04-25T01:51:27.316Z,0
2016-04-25T01:52:27.335Z,0
2016-04-25T01:53:27.432Z,0
2016-04-25T01:54:27.403Z,0
2016-04-25T01:55:27.437Z,0
2016-04-25T01:56:27.518Z,0
2016-04-25T01:57:28.785Z,0
2016-04-25T01:58:27.413Z,0
2016-04-25T01:59:27.573Z,0
2016-04-25T02:00:27.637Z,0
2016-04-25T02:01:27.672Z,0
2016-04-25T02:02:27.674Z,0
2016-04-25T02:03:27.709Z,0
2016-04-25T02:04:27.789Z,0
2016-04-25T02:05:27.776Z,0
2016-04-25T02:06:27.795Z,0
2016-04-25T02:07:27.829Z,0
2016-04-25T02:08:27.878Z,0
2016-04-25T02:09:27.897Z,0
2016-04-25T02:10:27.945Z,0
2016-04-25T02:11:27.981Z,0
2016-04-25T02:12:30.217Z,0
2016-04-25T02:13:27.907Z,0
2016-04-25T02:14:28.066Z,0
2016-04-25T02:15:28.194Z,0
2016-04-25T02:16:28.150Z,0
2016-04-25T02:17:28.168Z,0
2016-04-25T02:18:28.202Z,0
2016-04-25T02:19:28.313Z,0
2016-04-25T02:20:28.269Z,0
2016-04-25T02:21:28.305Z,0
2016-04-25T02:22:28.385Z,0
2016-04-25T02:23:28.402Z,0
2016-04-25T02:24:28.405Z,0
2016-04-25T02:25:28.454Z,0
2016-04-25T02:26:28.568Z,0
2016-04-25T02:27:29.071Z,0
2016-04-25T02:28:28.462Z,0
2016-04-25T02:29:28.607Z,0
2016-04-25T02:30:28.703Z,0
2016-04-25T02:31:28.659Z,0
2016-04-25T02:32:28.677Z,0
2016-04-25T02:33:28.790Z,0
2016-04-25T02:34:28.777Z,0
2016-04-25T02:35:28.795Z,0
2016-04-25T02:36:28.812Z,0
2016-04-25T02:37:28.909Z,0
2016-04-25T02:38:28.895Z,0
2016-04-25T02:39:28.930Z,0
2016-04-25T02:40:29.012Z,0
2016-04-25T02:41:29.045Z,0
2016-04-25T02:42:29.032Z,0
2016-04-25T02:43:30.488Z,0
2016-04-25T02:44:29.162Z,0
2016-04-25T02:45:29.165Z,0
2016-04-25T02:46:29.153Z,0
2016-04-25T02:47:29.217Z,0
2016-04-25T02:48:29.298Z,0
2016-04-25T02:49:29.255Z,0
2016-04-25T02:50:29.288Z,0
2016-04-25T02:51:29.369Z,0
2016-04-25T02:52:29.403Z,0
2016-04-25T02:53:29.390Z,0
2016-04-25T02:54:29.424Z,0
2016-04-25T02:55:29.473Z,0
2016-04-25T02:56:29.539Z,0
2016-04-25T02:57:29.557Z,0
2016-04-25T02:58:30.825Z,0
2016-04-25T02:59:29.610Z,0
2016-04-25T03:00:29.502Z,0
2016-04-25T03:01:29.662Z,0
2016-04-25T03:02:29.742Z,0
2016-04-25T03:03:29.777Z,0
2016-04-25T03:04:29.795Z,0
2016-04-25T03:05:29.797Z,0
2016-04-25T03:06:29.847Z,0
2016-04-25T03:07:29.896Z,0
2016-04-25T03:08:29.898Z,0
2016-04-25T03:09:29.948Z,0
2016-04-25T03:10:30.014Z,0
2016-04-25T03:11:30.001Z,0
2016-04-25T03:12:30.034Z,0
2016-04-25T03:13:31.053Z,0
2016-04-25T03:14:30.165Z,0
2016-04-25T03:15:29.386Z,0
2016-04-25T03:16:30.186Z,0
2016-04-25T03:17:29.501Z,0
2016-04-25T03:18:30.269Z,0
2016-04-25T03:19:30.273Z,0
2016-04-25T03:20:30.306Z,4
2016-04-25T03:21:30.433Z,4
2016-04-25T03:22:30.374Z,0
2016-04-25T03:23:30.408Z,4
2016-04-25T03:24:30.441Z,4
2016-04-25T03:25:30.522Z,4
2016-04-25T03:26:30.510Z,8
2016-04-25T03:27:31.325Z,8
2016-04-25T03:28:31.859Z,12
2016-04-25T03:29:30.612Z,12
2016-04-25T03:30:30.645Z,12
2016-04-25T03:31:29.992Z,16
2016-04-25T03:32:30.777Z,16
2016-04-25T03:33:30.747Z,20
2016-04-25T03:34:30.782Z,24
2016-04-25T03:35:30.815Z,28
2016-04-25T03:36:30.881Z,36
2016-04-25T03:37:30.884Z,40
2016-04-25T03:38:30.917Z,44
2016-04-25T03:39:31.029Z,52
2016-04-25T03:40:31.000Z,60
2016-04-25T03:41:31.003Z,68
2016-04-25T03:42:31.037Z,80
2016-04-25T03:43:31.603Z,88
2016-04-25T03:44:31.105Z,100
2016-04-25T03:45:31.155Z,112
2016-04-25T03:46:31.236Z,128
2016-04-25T03:47:31.239Z,140
2016-04-25T03:48:31.256Z,160
2016-04-25T03:49:31.259Z,180
2016-04-25T03:50:31.309Z,200
2016-04-25T03:51:31.342Z,216
2016-04-25T03:52:31.377Z,240
2016-04-25T03:53:31.395Z,256
2016-04-25T03:54:31.507Z,280
2016-04-25T03:55:31.463Z,308
2016-04-25T03:56:31.497Z,332
2016-04-25T03:57:31.563Z,364
2016-04-25T03:58:31.361Z,392
2016-04-25T03:59:31.613Z,428
2016-04-25T04:00:31.632Z,460
2016-04-25T04:01:31.699Z,492
2016-04-25T04:02:31.701Z,520
2016-04-25T04:03:31.718Z,544
2016-04-25T04:04:31.815Z,572
2016-04-25T04:05:31.834Z,596
2016-04-25T04:06:31.821Z,612
2016-04-25T04:07:31.885Z,636
2016-04-25T04:08:31.888Z,660
2016-04-25T04:09:31.985Z,684
2016-04-25T04:10:31.957Z,704
2016-04-25T04:11:32.006Z,704
2016-04-25T04:12:32.039Z,684
2016-04-25T04:13:32.073Z,688
2016-04-25T04:14:32.093Z,692
2016-04-25T04:15:32.142Z,720
2016-04-25T04:16:32.160Z,776
2016-04-25T04:17:32.194Z,836
2016-04-25T04:18:32.228Z,892
2016-04-25T04:19:32.247Z,936
2016-04-25T04:20:32.374Z,1016
2016-04-25T04:21:32.331Z,1052
2016-04-25T04:22:32.223Z,1080
2016-04-25T04:23:32.383Z,1120
2016-04-25T04:24:32.260Z,1156
2016-04-25T04:25:32.466Z,1192
2016-04-25T04:26:32.483Z,1228
2016-04-25T04:27:32.550Z,1256
2016-04-25T04:28:33.286Z,1284
2016-04-25T04:29:32.570Z,1328
2016-04-25T04:30:32.697Z,1380
2016-04-25T04:31:32.669Z,1432
2016-04-25T04:32:32.687Z,1484
2016-04-25T04:33:32.910Z,1516
2016-04-25T04:34:32.755Z,1548
2016-04-25T04:35:32.805Z,1580
2016-04-25T04:36:32.823Z,1628
2016-04-25T04:37:32.841Z,1660
2016-04-25T04:38:32.954Z,1680
2016-04-25T04:39:32.925Z,1716
2016-04-25T04:40:32.943Z,1768
2016-04-25T04:41:32.977Z,1784
2016-04-25T04:42:33.027Z,1796
2016-04-25T04:43:32.904Z,1784
2016-04-25T04:44:33.110Z,1752
2016-04-25T04:45:33.097Z,1724
2016-04-25T04:46:33.132Z,1684
2016-04-25T04:47:33.212Z,1676
2016-04-25T04:48:33.293Z,1692
2016-04-25T04:49:33.264Z,1740
2016-04-25T04:50:34.861Z,1796
2016-04-25T04:51:33.489Z,1872
2016-04-25T04:52:33.757Z,1952
2016-04-25T04:53:32.603Z,2032
2016-04-25T04:54:33.481Z,2092
2016-04-25T04:55:33.577Z,2104
2016-04-25T04:56:33.783Z,2116
2016-04-25T04:57:33.692Z,2144
2016-04-25T04:58:34.038Z,2180
2016-04-25T04:59:34.447Z,2232
2016-04-25T05:00:34.107Z,2228
2016-04-25T05:01:33.813Z,2204
2016-04-25T05:02:33.737Z,2180
2016-04-25T05:03:33.724Z,2160
2016-04-25T05:04:33.805Z,2148
2016-04-25T05:05:33.792Z,2172
2016-04-25T05:06:33.810Z,2244
2016-04-25T05:07:33.891Z,2332
2016-04-25T05:08:33.924Z,2420
2016-04-25T05:09:35.646Z,2472
2016-04-25T05:10:33.946Z,2540
2016-04-25T05:11:36.902Z,2600
2016-04-25T05:12:33.346Z,2656
2016-04-25T05:13:34.174Z,2664
2016-04-25T05:14:34.190Z,2684
2016-04-25T05:15:34.268Z,2692
2016-04-25T05:16:34.424Z,2656
2016-04-25T05:17:34.479Z,2620
2016-04-25T05:18:34.530Z,2672
2016-04-25T05:19:34.969Z,2804
2016-04-25T05:20:34.645Z,2920
2016-04-25T05:21:34.616Z,2984
2016-04-25T05:22:34.657Z,3036
2016-04-25T05:23:34.697Z,2988
2016-04-25T05:24:34.738Z,2796
2016-04-25T05:25:33.996Z,2600
2016-04-25T05:26:34.816Z,2724
2016-04-25T05:27:34.915Z,3148
2016-04-25T05:28:35.029Z,3516
2016-04-25T05:29:34.924Z,3804
2016-04-25T05:30:34.945Z,4096
2016-04-25T05:31:34.996Z,4348
2016-04-25T05:32:35.109Z,4508
2016-04-25T05:33:35.050Z,4584
2016-04-25T05:34:35.084Z,4648
2016-04-25T05:35:35.167Z,4744
2016-04-25T05:36:40.935Z,4856
2016-04-25T05:37:35.252Z,4896
2016-04-25T05:38:35.222Z,4828
2016-04-25T05:39:35.461Z,4696
2016-04-25T05:40:35.339Z,4472
2016-04-25T05:41:37.701Z,4116
2016-04-25T05:42:35.594Z,4008
2016-04-25T05:43:36.457Z,4120
2016-04-25T05:44:36.069Z,4168
2016-04-25T05:45:35.492Z,3896
2016-04-25T05:46:35.589Z,3864
2016-04-25T05:47:35.577Z,3656
2016-04-25T05:48:35.876Z,3240
2016-04-25T05:49:36.208Z,3196
2016-04-25T05:50:35.881Z,3176
2016-04-25T05:51:37.493Z,3736
2016-04-25T05:52:35.825Z,4520
2016-04-25T05:53:35.983Z,5172
2016-04-25T05:54:35.798Z,5224
2016-04-25T05:55:35.849Z,4904
2016-04-25T05:56:35.851Z,5144
2016-04-25T05:57:35.869Z,5048
2016-04-25T05:58:35.778Z,4400
2016-04-25T05:59:36.030Z,4240
2016-04-25T06:00:35.752Z,4224
2016-04-25T06:01:36.754Z,4964
2016-04-25T06:02:36.664Z,5256
2016-04-25T06:03:37.807Z,5920
2016-04-25T06:04:36.215Z,5784
2016-04-25T06:05:37.422Z,5624
2016-04-25T06:06:36.346Z,5628
2016-04-25T06:07:35.943Z,5900
2016-04-25T06:08:35.634Z,7128
2016-04-25T06:09:36.339Z,8712
2016-04-25T06:10:36.373Z,10568
2016-04-25T06:11:36.375Z,11140
2016-04-25T06:12:36.394Z,11200
2016-04-25T06:13:36.428Z,11132
2016-04-25T06:14:36.446Z,10776
2016-04-25T06:15:36.589Z,10176
2016-04-25T06:16:35.811Z,9528
2016-04-25T06:17:36.564Z,8692
2016-04-25T06:18:36.581Z,7152
2016-04-25T06:19:36.694Z,6012
2016-04-25T06:20:36.916Z,5656
2016-04-25T06:21:36.543Z,5608
2016-04-25T06:22:36.718Z,5200
2016-04-25T06:23:36.831Z,4972
2016-04-25T06:24:36.833Z,5364
2016-04-25T06:25:36.836Z,5472
2016-04-25T06:26:37.323Z,5972
2016-04-25T06:27:36.920Z,6784
2016-04-25T06:28:38.656Z,7332
2016-04-25T06:29:39.237Z,8032
2016-04-25T06:30:37.209Z,9168
2016-04-25T06:31:37.196Z,10064
2016-04-25T06:32:37.089Z,10916
2016-04-25T06:33:37.373Z,11448
2016-04-25T06:34:37.016Z,10856
2016-04-25T06:35:37.176Z,9708
2016-04-25T06:36:37.272Z,8512
2016-04-25T06:37:42.727Z,7700
2016-04-25T06:38:37.544Z,6788
2016-04-25T06:39:37.342Z,6232
2016-04-25T06:40:37.346Z,6108
2016-04-25T06:41:37.426Z,6084
2016-04-25T06:42:37.429Z,6312
2016-04-25T06:43:37.384Z,6424
2016-04-25T06:44:37.513Z,6244
2016-04-25T06:45:37.562Z,6180
2016-04-25T06:46:37.565Z,5472
2016-04-25T06:47:37.598Z,5076
2016-04-25T06:48:37.649Z,4944
2016-04-25T06:49:37.759Z,4932
2016-04-25T06:50:37.732Z,4880
2016-04-25T06:51:37.734Z,4624
2016-04-25T06:52:37.784Z,4468
2016-04-25T06:53:37.864Z,4496
2016-04-25T06:54:38.040Z,4800
2016-04-25T06:55:37.901Z,4740
2016-04-25T06:56:37.920Z,5048
2016-04-25T06:57:37.359Z,5740
2016-04-25T06:58:38.175Z,6876
2016-04-25T06:59:37.365Z,8980
2016-04-25T07:00:38.259Z,11464
2016-04-25T07:01:38.105Z,11748
2016-04-25T07:02:38.107Z,10452
2016-04-25T07:03:38.141Z,10460
2016-04-25T07:04:38.238Z,9984
2016-04-25T07:05:38.225Z,9300
2016-04-25T07:06:38.541Z,8968
2016-04-25T07:07:38.652Z,7032
2016-04-25T07:08:38.342Z,7052
2016-04-25T07:09:38.361Z,8324
2016-04-25T07:10:38.410Z,10384
2016-04-25T07:11:38.460Z,8404
2016-04-25T07:12:38.525Z,6120
2016-04-25T07:13:39.934Z,7044
2016-04-25T07:14:38.827Z,8404
2016-04-25T07:15:38.861Z,10532
2016-04-25T07:16:38.645Z,10340
2016-04-25T07:17:39.132Z,9840
2016-04-25T07:18:38.744Z,11236
2016-04-25T07:19:38.982Z,10760
2016-04-25T07:20:38.749Z,7660
2016-04-25T07:21:38.831Z,7172
2016-04-25T07:22:41.489Z,7600
2016-04-25T07:23:38.851Z,8116
2016-04-25T07:24:41.214Z,8028
2016-04-25T07:25:38.967Z,8172
2016-04-25T07:26:39.062Z,9240
2016-04-25T07:27:39.862Z,10776
2016-04-25T07:28:39.475Z,10816
2016-04-25T07:29:39.336Z,10388
2016-04-25T07:30:39.136Z,9420
2016-04-25T07:31:38.576Z,8636
2016-04-25T07:32:39.236Z,9404
2016-04-25T07:33:44.269Z,12328
2016-04-25T07:34:39.412Z,11712
2016-04-25T07:35:40.369Z,11308
2016-04-25T07:36:39.355Z,12612
2016-04-25T07:37:40.280Z,11056
2016-04-25T07:38:41.094Z,9264
2016-04-25T07:39:39.426Z,10100
2016-04-25T07:40:39.491Z,10168
2016-04-25T07:41:39.541Z,9472
2016-04-25T07:42:39.512Z,9380
2016-04-25T07:43:40.327Z,10808
2016-04-25T07:44:40.017Z,12064
2016-04-25T07:45:40.005Z,13060
2016-04-25T07:46:39.710Z,14200
2016-04-25T07:47:40.182Z,14692
2016-04-25T07:48:38.996Z,15444
2016-04-25T07:49:39.812Z,17760
2016-04-25T07:50:39.830Z,18400
2016-04-25T07:51:39.895Z,16288
2016-04-25T07:52:42.118Z,13248
2016-04-25T07:53:39.948Z,12668
2016-04-25T07:54:40.920Z,13264
2016-04-25T07:55:39.313Z,12276
2016-04-25T07:56:40.081Z,9008
2016-04-25T07:57:45.411Z,7944
2016-04-25T07:58:41.337Z,7916
2016-04-25T07:59:40.245Z,7864
2016-04-25T08:00:40.217Z,8512
2016-04-25T08:01:40.954Z,9368
2016-04-25T08:02:40.222Z,9152
2016-04-25T08:03:40.365Z,8976
2016-04-25T08:04:41.009Z,8804
2016-04-25T08:05:40.449Z,8904
2016-04-25T08:06:40.483Z,9380
2016-04-25T08:07:39.689Z,9468
2016-04-25T08:08:39.988Z,9796
2016-04-25T08:09:40.569Z,9832
2016-04-25T08:10:40.588Z,10068
2016-04-25T08:11:41.106Z,10532
2016-04-25T08:12:40.664Z,10272
2016-04-25T08:13:41.354Z,10820
2016-04-25T08:14:40.732Z,10032
2016-04-25T08:15:41.672Z,11960
2016-04-25T08:16:43.080Z,12680
2016-04-25T08:17:44.100Z,14948
2016-04-25T08:18:42.555Z,14040
2016-04-25T08:19:42.480Z,12804
2016-04-25T08:20:43.013Z,13984
2016-04-25T08:21:42.985Z,15352
2016-04-25T08:22:41.036Z,16340
2016-04-25T08:23:41.070Z,15672
2016-04-25T08:24:41.150Z,12968
2016-04-25T08:25:41.137Z,10500
2016-04-25T08:26:41.187Z,8764
2016-04-25T08:27:41.408Z,7748
2016-04-25T08:28:42.927Z,6948
2016-04-25T08:29:41.414Z,6432
2016-04-25T08:30:41.604Z,6608
2016-04-25T08:31:41.372Z,6660
2016-04-25T08:32:43.828Z,6980
2016-04-25T08:33:41.440Z,7668
2016-04-25T08:34:41.490Z,8844
2016-04-25T08:35:41.571Z,9756
2016-04-25T08:36:42.449Z,11728
2016-04-25T08:37:41.591Z,14468
2016-04-25T08:38:41.657Z,13488
2016-04-25T08:39:41.707Z,14388
2016-04-25T08:40:42.745Z,17344
2016-04-25T08:41:41.732Z,19520
2016-04-25T08:42:42.219Z,20544
2016-04-25T08:43:51.503Z,18336
2016-04-25T08:44:42.741Z,15204
2016-04-25T08:45:42.884Z,13312
2016-04-25T08:46:41.934Z,11516
2016-04-25T08:47:42.029Z,9988
2016-04-25T08:48:43.485Z,8820
2016-04-25T08:49:42.551Z,7888
2016-04-25T08:50:42.162Z,6656
2016-04-25T08:51:42.181Z,5812
2016-04-25T08:52:42.215Z,5276
2016-04-25T08:53:43.873Z,5312
2016-04-25T08:54:42.298Z,6024
2016-04-25T08:55:42.301Z,7420
2016-04-25T08:56:42.600Z,8992
2016-04-25T08:57:42.353Z,10524
2016-04-25T08:58:42.309Z,11892
2016-04-25T08:59:42.672Z,12804
2016-04-25T09:00:42.455Z,13380
2016-04-25T09:01:43.630Z,13644
2016-04-25T09:02:43.507Z,13772
2016-04-25T09:03:42.604Z,14108
2016-04-25T09:04:42.653Z,14392
2016-04-25T09:05:42.656Z,14696
2016-04-25T09:06:42.799Z,14712
2016-04-25T09:07:42.740Z,15068
2016-04-25T09:08:42.774Z,15572
2016-04-25T09:09:42.027Z,16228
2016-04-25T09:10:42.904Z,16576
2016-04-25T09:11:42.907Z,15660
2016-04-25T09:12:42.924Z,14512
2016-04-25T09:13:43.521Z,14000
2016-04-25T09:14:42.915Z,12952
2016-04-25T09:15:43.057Z,12344
2016-04-25T09:16:43.064Z,13200
2016-04-25T09:17:42.411Z,15392
2016-04-25T09:18:43.195Z,19488
2016-04-25T09:19:43.213Z,20992
2016-04-25T09:20:43.232Z,20640
2016-04-25T09:21:43.500Z,19840
2016-04-25T09:22:43.378Z,21376
2016-04-25T09:23:43.896Z,19040
2016-04-25T09:24:43.383Z,18688
2016-04-25T09:25:43.557Z,19232
2016-04-25T09:26:43.482Z,20512
2016-04-25T09:27:43.501Z,20992
2016-04-25T09:28:44.535Z,21792
2016-04-25T09:29:43.521Z,22304
2016-04-25T09:30:43.790Z,21856
2016-04-25T09:31:43.651Z,21376
2016-04-25T09:32:43.702Z,19744
2016-04-25T09:33:43.735Z,17120
2016-04-25T09:34:43.878Z,15264
2016-04-25T09:35:43.803Z,13748
2016-04-25T09:36:43.900Z,12404
2016-04-25T09:37:43.950Z,11936
2016-04-25T09:38:43.936Z,12428
2016-04-25T09:39:45.158Z,14216
2016-04-25T09:40:44.020Z,15588
2016-04-25T09:41:44.085Z,16324
2016-04-25T09:42:46.009Z,15740
2016-04-25T09:43:44.466Z,14600
2016-04-25T09:44:44.389Z,13204
2016-04-25T09:45:44.314Z,11608
2016-04-25T09:46:44.270Z,12176
2016-04-25T09:47:44.727Z,14068
2016-04-25T09:48:44.338Z,16572
2016-04-25T09:49:44.419Z,19584
2016-04-25T09:50:44.453Z,21856
2016-04-25T09:51:44.455Z,24064
2016-04-25T09:52:44.505Z,27936
2016-04-25T09:53:44.554Z,27936
2016-04-25T09:54:44.557Z,30240
2016-04-25T09:55:44.888Z,36032
2016-04-25T09:56:44.719Z,32416
2016-04-25T09:57:44.737Z,35168
2016-04-25T09:58:46.021Z,36832
2016-04-25T09:59:45.415Z,30304
2016-04-25T10:00:45.949Z,27904
2016-04-25T10:01:44.842Z,23328
2016-04-25T10:02:44.907Z,20256
2016-04-25T10:03:44.925Z,43520
2016-04-25T10:04:46.287Z,96256
2016-04-25T10:05:45.009Z,104288
2016-04-25T10:06:45.043Z,90368
2016-04-25T10:07:45.123Z,49792
2016-04-25T10:08:46.642Z,83520
2016-04-25T10:09:47.395Z,33280
2016-04-25T10:10:45.226Z,99648
2016-04-25T10:11:45.337Z,88896
2016-04-25T10:12:45.386Z,49216
2016-04-25T10:13:45.812Z,34880
2016-04-25T10:14:45.331Z,39136
2016-04-25T10:15:45.489Z,29888
2016-04-25T10:16:45.508Z,52416
2016-04-25T10:17:47.885Z,23296
2016-04-25T10:18:45.653Z,45696
2016-04-25T10:19:46.219Z,21280
2016-04-25T10:20:48.816Z,23168
2016-04-25T10:21:45.724Z,19616
2016-04-25T10:22:45.820Z,18272
2016-04-25T10:23:45.823Z,13928
2016-04-25T10:24:45.841Z,13140
2016-04-25T10:25:45.907Z,13512
2016-04-25T10:26:47.316Z,14160
2016-04-25T10:27:46.240Z,15540
2016-04-25T10:28:46.087Z,17792
2016-04-25T10:29:47.168Z,20448
2016-04-25T10:30:48.264Z,23104
2016-04-25T10:31:52.600Z,32800
2016-04-25T10:32:55.290Z,28576
2016-04-25T10:33:55.668Z,27904
2016-04-25T10:34:50.862Z,25312
2016-04-25T10:35:53.574Z,21440
2016-04-25T10:36:51.061Z,21440
2016-04-25T10:37:50.767Z,22880
2016-04-25T10:38:53.785Z,25216
2016-04-25T10:39:56.976Z,35648
2016-04-25T10:40:50.666Z,53600
2016-04-25T10:41:53.528Z,48704
2016-04-25T10:42:50.170Z,47488
2016-04-25T10:43:50.908Z,38624
2016-04-25T10:44:49.551Z,50208
2016-04-25T10:45:47.898Z,105696
2016-04-25T10:46:49.197Z,118432
2016-04-25T10:47:48.450Z,38848
2016-04-25T10:48:47.266Z,84448
2016-04-25T10:49:50.784Z,58816
2016-04-25T10:50:47.021Z,57632
2016-04-25T10:51:47.602Z,103552
2016-04-25T10:52:48.197Z,114688
2016-04-25T10:53:47.372Z,118656
2016-04-25T10:54:48.734Z,121184
2016-04-25T10:55:48.019Z,120928
2016-04-25T10:56:47.443Z,68512
2016-04-25T10:57:47.368Z,118944
2016-04-25T10:58:47.729Z,116896
2016-04-25T10:59:48.514Z,121152
2016-04-25T11:00:47.610Z,124096
2016-04-25T11:01:48.691Z,117312
2016-04-25T11:02:48.084Z,80992
2016-04-25T11:03:48.102Z,121856
2016-04-25T11:04:51.824Z,122464
2016-04-25T11:05:48.201Z,120768
2016-04-25T11:06:48.142Z,115008
2016-04-25T11:07:48.113Z,108608
2016-04-25T11:08:47.132Z,115424
2016-04-25T11:09:49.618Z,109760
2016-04-25T11:10:50.746Z,114304
2016-04-25T11:11:48.171Z,106592
2016-04-25T11:12:48.080Z,41664
2016-04-25T11:13:48.238Z,88608
2016-04-25T11:14:49.398Z,107456
2016-04-25T11:15:48.400Z,113728
2016-04-25T11:16:50.184Z,109792
2016-04-25T11:17:48.375Z,111552
2016-04-25T11:18:48.284Z,105888
2016-04-25T11:19:48.505Z,117888
2016-04-25T11:20:48.930Z,88768
2016-04-25T11:21:48.886Z,75808
2016-04-25T11:22:49.185Z,46976
2016-04-25T11:23:49.578Z,28576
2016-04-25T11:24:49.080Z,18208
2016-04-25T11:25:49.146Z,14940
2016-04-25T11:26:49.493Z,16164
2016-04-25T11:27:49.449Z,17856
2016-04-25T11:28:49.545Z,19072
2016-04-25T11:29:50.516Z,21568
2016-04-25T11:30:50.410Z,30208
2016-04-25T11:31:48.866Z,32704
2016-04-25T11:32:49.180Z,49152
2016-04-25T11:33:49.168Z,38400
2016-04-25T11:34:49.217Z,84320
2016-04-25T11:35:49.485Z,124672
2016-04-25T11:36:49.348Z,138784
2016-04-25T11:37:49.350Z,136576
2016-04-25T11:38:50.243Z,145664
2016-04-25T11:39:49.528Z,144544
2016-04-25T11:40:51.076Z,139872
2016-04-25T11:41:49.548Z,136672
2016-04-25T11:42:49.614Z,128256
2016-04-25T11:43:49.959Z,123584
2016-04-25T11:44:50.103Z,128928
2016-04-25T11:45:49.919Z,134592
2016-04-25T11:46:49.843Z,138784
2016-04-25T11:47:50.116Z,142048
2016-04-25T11:48:52.655Z,142272
2016-04-25T11:49:49.971Z,136544
2016-04-25T11:50:50.052Z,23808
2016-04-25T11:51:50.085Z,46304
2016-04-25T11:52:50.124Z,17952
2016-04-25T11:53:53.251Z,15956
2016-04-25T11:54:52.551Z,15244
2016-04-25T11:55:52.148Z,14616
2016-04-25T11:56:57.276Z,13512
2016-04-25T11:57:51.185Z,13096
2016-04-25T11:58:54.781Z,13552
2016-04-25T11:59:52.909Z,14920
2016-04-25T12:00:53.567Z,17408
2016-04-25T12:01:52.617Z,20416
2016-04-25T12:02:50.667Z,24192
2016-04-25T12:03:51.748Z,29120
2016-04-25T12:04:52.344Z,41344
2016-04-25T12:05:53.440Z,127968
2016-04-25T12:06:51.630Z,95040
2016-04-25T12:07:50.492Z,93728
2016-04-25T12:08:52.417Z,119776
2016-04-25T12:09:51.217Z,124736
2016-04-25T12:10:51.828Z,129856
2016-04-25T12:11:51.331Z,123520
2016-04-25T12:12:52.756Z,116096
2016-04-25T12:13:52.555Z,112352
2016-04-25T12:14:51.089Z,116736
2016-04-25T12:15:51.638Z,126720
2016-04-25T12:16:53.001Z,96896
2016-04-25T12:17:53.191Z,133632
2016-04-25T12:18:51.960Z,128064
2016-04-25T12:19:52.541Z,12888
2016-04-25T12:20:51.637Z,14912
2016-04-25T12:21:51.827Z,17184
2016-04-25T12:22:52.174Z,128320
2016-04-25T12:23:52.223Z,127584
2016-04-25T12:24:53.757Z,129184
2016-04-25T12:25:52.369Z,131776
2016-04-25T12:26:52.028Z,135328
2016-04-25T12:27:52.484Z,132992
2016-04-25T12:28:56.002Z,126272
2016-04-25T12:29:57.333Z,115104
2016-04-25T12:30:54.445Z,57344
2016-04-25T12:31:54.760Z,52992
2016-04-25T12:32:53.904Z,60832
2016-04-25T12:33:54.562Z,79712
2016-04-25T12:34:52.628Z,111232
2016-04-25T12:35:53.036Z,59808
2016-04-25T12:36:53.023Z,119936
2016-04-25T12:37:56.683Z,89248
2016-04-25T12:38:55.981Z,67488
2016-04-25T12:39:57.266Z,119520
2016-04-25T12:40:54.206Z,116384
2016-04-25T12:41:54.319Z,115808
2016-04-25T12:42:56.321Z,113824
2016-04-25T12:43:54.074Z,116128
2016-04-25T12:44:55.936Z,20704
2016-04-25T12:45:53.641Z,120576
2016-04-25T12:46:53.458Z,18304
2016-04-25T12:47:53.194Z,14452
2016-04-25T12:48:54.352Z,11644
2016-04-25T12:49:53.419Z,10728
2016-04-25T12:50:53.186Z,9988
2016-04-25T12:51:53.360Z,9816
2016-04-25T12:52:53.519Z,9720
2016-04-25T12:53:53.241Z,10864
2016-04-25T12:54:53.431Z,14696
2016-04-25T12:55:55.138Z,49696
2016-04-25T12:56:54.035Z,27232
2016-04-25T12:57:53.757Z,23936
2016-04-25T12:58:53.479Z,35008
2016-04-25T12:59:54.965Z,16496
2016-04-25T13:00:53.609Z,14868
2016-04-25T13:01:54.565Z,14792
2016-04-25T13:02:57.145Z,15844
2016-04-25T13:03:54.429Z,16832
2016-04-25T13:04:53.870Z,53920
2016-04-25T13:05:59.278Z,19232
2016-04-25T13:06:55.859Z,18944
2016-04-25T13:07:54.987Z,19968
2016-04-25T13:08:53.990Z,20544
2016-04-25T13:09:56.102Z,22752
2016-04-25T13:10:54.776Z,31104
2016-04-25T13:11:58.201Z,79008
2016-04-25T13:12:53.375Z,109376
2016-04-25T13:13:54.487Z,104320
2016-04-25T13:14:55.272Z,107008
2016-04-25T13:15:55.415Z,31744
2016-04-25T13:16:55.417Z,23424
2016-04-25T13:17:55.021Z,23776
2016-04-25T13:18:54.789Z,94304
2016-04-25T13:19:56.510Z,103904
2016-04-25T13:20:57.217Z,95520
2016-04-25T13:21:56.984Z,102336
2016-04-25T13:22:57.190Z,110144
2016-04-25T13:23:57.428Z,110816
2016-04-25T13:24:58.555Z,112800
2016-04-25T13:25:57.026Z,112416
2016-04-25T13:26:56.654Z,109888
2016-04-25T13:27:55.594Z,106208